Time;durP1;ratioP1;P1;durP2;ratioP2;P2;SDS_P1;SDS_P2;PMS_P1;PMS_P2;Temp;Humidity;BMP_temperature;BMP_pressure;BME280_temperature;BME280_humidity;BME280_pressure;Samples;Min_cycle;Max_cycle;Signal;HPM_P1;HPM_P2
2022/12/08 00:01:38;;;;;;;11.18;7.32;;;3.90;99.90;;;;;;4991225;28;20038;-72
2022/12/08 00:04:04;;;;;;;10.13;6.95;;;3.90;99.90;;;;;;4993458;28;20086;-70
2022/12/08 00:09:26;;;;;;;13.25;7.55;;;3.90;99.90;;;;;;4989602;28;20076;-71
2022/12/08 00:12:03;;;;;;;13.80;7.72;;;3.90;99.90;;;;;;4991332;28;20049;-71
2022/12/08 00:14:38;;;;;;;12.98;7.20;;;3.90;99.90;;;;;;4987470;28;20040;-71
2022/12/08 00:17:05;;;;;;;12.15;7.07;;;4.00;99.90;;;;;;4990858;28;20084;-71
2022/12/08 00:19:31;;;;;;;13.85;7.68;;;4.00;99.90;;;;;;4993004;28;20536;-71
2022/12/08 00:21:57;;;;;;;13.25;8.50;;;4.00;99.90;;;;;;4994604;28;20486;-71
2022/12/08 00:24:25;;;;;;;12.73;8.32;;;4.00;99.90;;;;;;4998963;28;20109;-71
2022/12/08 00:26:50;;;;;;;12.00;8.07;;;4.00;99.90;;;;;;4988204;28;20030;-71
2022/12/08 00:29:17;;;;;;;17.08;9.32;;;4.00;99.90;;;;;;4995481;28;20041;-72
2022/12/08 00:31:42;;;;;;;13.02;8.60;;;4.10;99.90;;;;;;4995055;28;20135;-71
2022/12/08 00:34:08;;;;;;;15.20;9.55;;;4.10;99.90;;;;;;4994351;28;20501;-71
2022/12/08 00:36:33;;;;;;;15.88;10.18;;;4.00;99.90;;;;;;4989812;28;20545;-71
2022/12/08 00:38:59;;;;;;;11.65;8.10;;;4.00;99.90;;;;;;4988883;28;20026;-71
2022/12/08 00:44:13;;;;;;;14.65;9.32;;;4.00;99.90;;;;;;4990588;28;20037;-71
2022/12/08 00:46:38;;;;;;;17.30;10.25;;;4.00;99.90;;;;;;4986342;28;20530;-71
2022/12/08 00:49:04;;;;;;;17.23;9.75;;;4.00;99.90;;;;;;4989253;28;20157;-71
2022/12/08 00:51:30;;;;;;;18.45;11.90;;;4.00;99.90;;;;;;4994667;28;20389;-71
2022/12/08 00:53:56;;;;;;;21.52;12.80;;;4.00;99.90;;;;;;4997788;28;20025;-71
2022/12/08 00:56:22;;;;;;;21.77;13.38;;;4.00;99.90;;;;;;4991545;28;20040;-71
2022/12/08 00:58:47;;;;;;;21.83;14.07;;;4.00;99.90;;;;;;4993626;28;20026;-71
2022/12/08 01:01:13;;;;;;;20.52;13.52;;;4.00;99.90;;;;;;4990579;28;20427;-72
2022/12/08 01:03:40;;;;;;;24.25;14.23;;;4.00;99.90;;;;;;4995048;28;20030;-71
2022/12/08 01:06:07;;;;;;;25.08;15.63;;;4.00;99.90;;;;;;4994422;28;20443;-71
2022/12/08 01:08:34;;;;;;;27.20;16.33;;;4.00;99.90;;;;;;4991127;28;20065;-72
2022/12/08 01:11:04;;;;;;;28.33;16.00;;;3.90;99.90;;;;;;4989520;28;20022;-71
2022/12/08 01:13:30;;;;;;;22.55;15.77;;;3.90;99.90;;;;;;4990496;28;20418;-71
2022/12/08 01:15:55;;;;;;;27.90;17.63;;;3.90;99.90;;;;;;4988834;28;20034;-72
2022/12/08 01:18:21;;;;;;;28.20;17.38;;;3.90;99.90;;;;;;4990197;28;20038;-72
2022/12/08 01:20:46;;;;;;;29.35;17.38;;;3.90;99.90;;;;;;4996349;28;20047;-71
2022/12/08 01:23:12;;;;;;;27.52;17.30;;;3.90;99.90;;;;;;4991846;28;20051;-71
2022/12/08 01:25:38;;;;;;;32.00;17.55;;;3.90;99.90;;;;;;4992947;28;20029;-71
2022/12/08 01:28:03;;;;;;;27.50;17.42;;;3.90;99.90;;;;;;4995014;28;20362;-71
2022/12/08 01:30:29;;;;;;;29.33;16.73;;;3.90;99.90;;;;;;4997811;28;20035;-71
2022/12/08 01:32:55;;;;;;;28.60;17.08;;;3.90;99.90;;;;;;5004080;28;20022;-72
2022/12/08 01:35:21;;;;;;;28.88;17.42;;;4.00;99.90;;;;;;4995707;28;20033;-71
2022/12/08 01:37:46;;;;;;;32.20;17.67;;;4.00;99.90;;;;;;4989919;28;20026;-71
2022/12/08 01:40:12;;;;;;;26.35;16.70;;;4.00;99.90;;;;;;4989981;28;20026;-72
2022/12/08 01:42:38;;;;;;;25.95;16.33;;;4.00;99.90;;;;;;4998893;28;20046;-72
2022/12/08 01:45:13;;;;;;;29.02;16.55;;;4.00;99.90;;;;;;4992409;28;20030;-71
2022/12/08 01:47:44;;;;;;;22.70;14.70;;;4.00;99.90;;;;;;4994081;28;20041;-72
2022/12/08 01:50:11;;;;;;;27.15;15.80;;;4.00;99.90;;;;;;4990628;28;20029;-72
2022/12/08 01:52:41;;;;;;;25.50;15.38;;;4.00;99.90;;;;;;4992679;28;20461;-72
2022/12/08 01:55:45;;;;;;;26.85;15.20;;;4.00;99.90;;;;;;4989234;28;20026;-72
2022/12/08 01:58:30;;;;;;;23.60;13.50;;;4.00;99.90;;;;;;4992081;28;20792;-72
2022/12/08 02:00:56;;;;;;;20.63;12.65;;;3.90;99.90;;;;;;4989640;28;20027;-72
2022/12/08 02:03:30;;;;;;;24.73;13.70;;;4.00;99.90;;;;;;4991413;28;20504;-72
2022/12/08 02:05:56;;;;;;;22.67;12.13;;;4.00;99.90;;;;;;5000786;28;20026;-72
2022/12/08 02:08:22;;;;;;;18.40;12.27;;;3.90;99.90;;;;;;5001744;28;20057;-72
2022/12/08 02:10:48;;;;;;;21.02;12.35;;;4.00;99.90;;;;;;4992572;28;20069;-72
2022/12/08 02:13:16;;;;;;;17.98;11.13;;;4.00;99.90;;;;;;4993047;28;21817;-71
2022/12/08 02:16:15;;;;;;;20.23;12.68;;;4.00;99.90;;;;;;5004105;28;20042;-72
2022/12/08 02:19:10;;;;;;;22.65;12.00;;;4.00;99.90;;;;;;4995574;28;20061;-71
2022/12/08 02:21:43;;;;;;;17.85;10.00;;;4.00;99.90;;;;;;4988776;28;20042;-72
2022/12/08 02:24:30;;;;;;;16.60;10.75;;;4.00;99.90;;;;;;4996146;28;20061;-72
2022/12/08 02:27:25;;;;;;;18.88;10.82;;;4.00;99.90;;;;;;4995592;28;20115;-72
2022/12/08 02:30:09;;;;;;;18.67;11.00;;;3.90;99.90;;;;;;4988237;28;20428;-72
2022/12/08 02:33:03;;;;;;;17.63;10.27;;;4.00;99.90;;;;;;5000395;28;20654;-72
2022/12/08 02:35:53;;;;;;;17.40;9.82;;;4.00;99.90;;;;;;4994539;28;20053;-72
2022/12/08 02:38:28;;;;;;;17.42;10.20;;;4.00;99.90;;;;;;4993413;28;20441;-72
2022/12/08 02:41:10;;;;;;;18.20;9.98;;;4.00;99.90;;;;;;4996688;28;20038;-72
2022/12/08 02:43:46;;;;;;;14.73;9.13;;;4.00;99.90;;;;;;4990008;28;20030;-72
2022/12/08 02:46:18;;;;;;;13.50;8.57;;;4.00;99.90;;;;;;4986318;28;20034;-72
2022/12/08 02:48:44;;;;;;;16.77;10.03;;;4.00;99.90;;;;;;4997521;28;20022;-72
2022/12/08 02:51:09;;;;;;;17.67;9.57;;;4.00;99.90;;;;;;5000155;28;20810;-72
2022/12/08 02:53:35;;;;;;;14.95;8.63;;;4.00;99.90;;;;;;4998294;28;20034;-72
2022/12/08 02:56:30;;;;;;;13.90;8.82;;;4.00;99.90;;;;;;4998657;28;20022;-72
2022/12/08 02:59:05;;;;;;;15.98;9.38;;;4.00;99.90;;;;;;4977969;28;20035;-72
2022/12/08 03:01:57;;;;;;;15.63;8.10;;;4.00;99.90;;;;;;4992064;28;20050;-72
2022/12/08 03:04:33;;;;;;;13.70;8.00;;;4.10;99.90;;;;;;4983483;28;20041;-72
2022/12/08 03:07:31;;;;;;;12.60;7.57;;;4.10;99.90;;;;;;4994306;28;20126;-72
2022/12/08 03:10:18;;;;;;;12.77;7.95;;;4.10;99.90;;;;;;4987862;28;20030;-72
2022/12/08 03:13:04;;;;;;;12.43;7.28;;;4.10;99.90;;;;;;4990425;28;20394;-72
2022/12/08 03:15:31;;;;;;;12.63;7.25;;;4.10;99.90;;;;;;4992463;28;20042;-72
2022/12/08 03:17:58;;;;;;;15.05;7.25;;;4.10;99.90;;;;;;4992663;28;20482;-72
2022/12/08 03:20:26;;;;;;;13.55;7.20;;;4.10;99.90;;;;;;4996081;28;20122;-72
2022/12/08 03:22:55;;;;;;;10.48;6.07;;;4.00;99.90;;;;;;4985841;28;20033;-72
2022/12/08 03:25:24;;;;;;;9.98;6.25;;;4.10;99.90;;;;;;4990908;28;20418;-72
2022/12/08 03:27:51;;;;;;;11.20;6.22;;;4.10;99.90;;;;;;4989907;28;20050;-72
2022/12/08 03:30:17;;;;;;;9.73;5.95;;;4.10;99.90;;;;;;4988428;28;20105;-72
2022/12/08 03:32:51;;;;;;;10.07;5.68;;;4.10;99.90;;;;;;4999516;28;20748;-73
2022/12/08 03:35:23;;;;;;;10.48;4.97;;;4.10;99.90;;;;;;4990497;28;20022;-72
2022/12/08 03:37:49;;;;;;;11.80;5.03;;;4.10;99.90;;;;;;5000467;28;20441;-72
2022/12/08 03:40:18;;;;;;;5.00;3.58;;;4.10;99.90;;;;;;4991128;28;20102;-72
2022/12/08 03:42:43;;;;;;;7.75;3.40;;;4.10;99.90;;;;;;4987642;28;20058;-71
2022/12/08 03:45:10;;;;;;;7.22;3.80;;;4.00;99.90;;;;;;4999231;28;20038;-72
2022/12/08 03:47:35;;;;;;;6.43;3.25;;;4.00;99.90;;;;;;4983410;28;20049;-71
2022/12/08 03:50:01;;;;;;;5.15;2.97;;;4.00;99.90;;;;;;4983177;28;20485;-71
2022/12/08 03:52:26;;;;;;;4.82;2.25;;;4.00;99.90;;;;;;4995416;28;20034;-72
2022/12/08 03:54:52;;;;;;;4.97;1.95;;;4.00;99.90;;;;;;5002262;28;20021;-72
2022/12/08 03:57:18;;;;;;;4.78;2.38;;;4.00;99.90;;;;;;4994154;28;20038;-72
2022/12/08 03:59:43;;;;;;;5.13;2.15;;;4.00;99.90;;;;;;4995784;28;20026;-72
2022/12/08 04:02:09;;;;;;;4.13;1.90;;;4.00;99.90;;;;;;4989032;28;20493;-72
2022/12/08 04:04:44;;;;;;;4.53;1.60;;;4.00;99.90;;;;;;4998339;28;20094;-72
2022/12/08 04:07:09;;;;;;;4.65;1.98;;;4.00;99.90;;;;;;4990856;28;20030;-72
2022/12/08 04:09:35;;;;;;;4.90;2.08;;;4.00;99.90;;;;;;4992946;28;20437;-71
2022/12/08 04:12:00;;;;;;;4.63;2.25;;;4.00;99.90;;;;;;4991936;28;20619;-72
2022/12/08 04:14:26;;;;;;;3.55;1.92;;;4.00;99.90;;;;;;4994609;28;20076;-71
2022/12/08 04:16:51;;;;;;;5.50;2.28;;;4.00;99.90;;;;;;5002042;28;20030;-71
2022/12/08 04:19:17;;;;;;;4.07;2.17;;;4.00;99.90;;;;;;4988523;28;20401;-72
2022/12/08 04:21:42;;;;;;;2.97;2.03;;;4.00;99.90;;;;;;4984121;28;20413;-72
2022/12/08 04:24:09;;;;;;;4.47;2.40;;;4.00;99.90;;;;;;4991924;28;20104;-71
2022/12/08 04:26:35;;;;;;;4.35;2.40;;;4.00;99.90;;;;;;4993879;28;20454;-72
2022/12/08 04:29:00;;;;;;;2.67;1.52;;;4.00;99.90;;;;;;4987811;28;20026;-72
2022/12/08 04:31:26;;;;;;;2.90;1.67;;;4.00;99.90;;;;;;4988934;28;20516;-72
2022/12/08 04:33:51;;;;;;;4.40;1.58;;;4.00;99.90;;;;;;4988752;28;20097;-71
2022/12/08 04:36:17;;;;;;;4.10;2.13;;;4.00;99.90;;;;;;4992822;28;20027;-77
2022/12/08 04:38:42;;;;;;;5.13;1.98;;;4.00;99.90;;;;;;4989877;28;20027;-71
2022/12/08 04:41:08;;;;;;;3.15;1.70;;;4.00;99.90;;;;;;4984095;28;20042;-71
2022/12/08 04:43:34;;;;;;;3.72;2.33;;;4.00;99.90;;;;;;4991183;28;20034;-72
2022/12/08 04:46:00;;;;;;;3.85;2.05;;;4.00;99.90;;;;;;5002653;28;20026;-72
2022/12/08 04:48:25;;;;;;;2.58;1.70;;;4.00;99.90;;;;;;4989702;28;20141;-72
2022/12/08 04:50:51;;;;;;;2.60;1.80;;;4.00;99.90;;;;;;4994014;28;20029;-72
2022/12/08 04:53:18;;;;;;;4.00;1.38;;;4.00;99.90;;;;;;4990007;28;20050;-72
2022/12/08 04:55:47;;;;;;;3.45;1.60;;;4.00;99.90;;;;;;4991949;28;20022;-72
2022/12/08 04:58:14;;;;;;;4.45;1.52;;;3.90;99.90;;;;;;4997983;28;20129;-71
2022/12/08 05:00:40;;;;;;;3.60;1.00;;;3.90;99.90;;;;;;4987233;28;20045;-72
2022/12/08 05:03:06;;;;;;;3.05;1.15;;;3.90;99.90;;;;;;4991197;28;20105;-72
2022/12/08 05:05:32;;;;;;;2.53;0.70;;;3.80;99.90;;;;;;4988678;28;20390;-71
2022/12/08 05:07:57;;;;;;;2.13;0.70;;;3.80;99.90;;;;;;4993641;28;20472;-72
2022/12/08 05:10:23;;;;;;;1.52;0.52;;;3.80;99.90;;;;;;4987939;28;20030;-72
2022/12/08 05:12:48;;;;;;;3.97;0.60;;;3.80;99.90;;;;;;4987064;28;20111;-72
2022/12/08 05:15:14;;;;;;;3.00;0.38;;;3.80;99.90;;;;;;4992439;28;20046;-72
2022/12/08 05:17:39;;;;;;;5.32;0.40;;;3.80;99.90;;;;;;4995067;28;20545;-72
2022/12/08 05:20:05;;;;;;;1.50;0.38;;;3.80;99.90;;;;;;5003863;28;20046;-72
2022/12/08 05:22:31;;;;;;;0.73;0.28;;;3.70;99.90;;;;;;4993618;28;20509;-72
2022/12/08 05:24:57;;;;;;;1.42;0.20;;;3.70;99.90;;;;;;4993962;28;20057;-71
2022/12/08 05:27:22;;;;;;;1.50;0.30;;;3.70;99.90;;;;;;5001765;28;20482;-72
2022/12/08 05:29:49;;;;;;;1.80;0.20;;;3.60;99.90;;;;;;4996657;28;20112;-71
2022/12/08 05:32:14;;;;;;;0.55;0.20;;;3.60;99.90;;;;;;4994808;28;20030;-71
2022/12/08 05:34:40;;;;;;;1.10;0.20;;;3.60;99.90;;;;;;4997084;28;20022;-72
2022/12/08 05:37:05;;;;;;;1.60;0.30;;;3.60;99.90;;;;;;4992962;28;20486;-71
2022/12/08 05:39:31;;;;;;;1.48;0.30;;;3.60;99.90;;;;;;5006199;28;20040;-72
2022/12/08 05:41:58;;;;;;;2.05;0.40;;;3.60;99.90;;;;;;4996810;28;20607;-72
2022/12/08 05:44:24;;;;;;;1.33;0.50;;;3.60;99.90;;;;;;5002411;28;20388;-72
2022/12/08 05:46:50;;;;;;;2.72;0.50;;;3.60;99.90;;;;;;4997724;28;20030;-72
2022/12/08 05:49:16;;;;;;;2.38;0.60;;;3.70;99.90;;;;;;5007820;28;20041;-72
2022/12/08 05:51:42;;;;;;;2.53;0.50;;;3.70;99.90;;;;;;4996199;28;20105;-72
2022/12/08 05:54:07;;;;;;;2.00;0.60;;;3.70;99.90;;;;;;4999395;28;20449;-72
2022/12/08 05:56:33;;;;;;;4.50;0.75;;;3.70;99.90;;;;;;4993892;28;20109;-72
2022/12/08 05:58:59;;;;;;;2.28;0.77;;;3.70;99.90;;;;;;5000711;28;20093;-72
2022/12/08 06:01:30;;;;;;;2.83;0.90;;;3.70;99.90;;;;;;4991409;28;20053;-72
2022/12/08 06:03:57;;;;;;;1.63;0.80;;;3.70;99.90;;;;;;4994276;28;20022;-72
2022/12/08 06:06:23;;;;;;;1.85;0.77;;;3.70;99.90;;;;;;5000135;28;20019;-72
2022/12/08 06:08:48;;;;;;;2.45;0.80;;;3.80;99.90;;;;;;4989699;28;20104;-71
2022/12/08 06:11:23;;;;;;;5.47;1.52;;;3.80;99.90;;;;;;4985651;28;20026;-72
2022/12/08 06:13:49;;;;;;;4.93;1.58;;;3.80;99.90;;;;;;4994010;28;20039;-72
2022/12/08 06:16:15;;;;;;;4.95;1.33;;;3.80;99.90;;;;;;4999355;28;20010;-72
2022/12/08 06:18:45;;;;;;;3.88;2.00;;;3.80;99.90;;;;;;4991897;28;20022;-72
2022/12/08 06:21:13;;;;;;;4.25;1.95;;;3.80;99.90;;;;;;4992016;28;20065;-72
2022/12/08 06:23:39;;;;;;;3.22;1.67;;;3.90;99.90;;;;;;4994015;28;20378;-72
2022/12/08 06:26:07;;;;;;;2.20;1.40;;;3.80;99.90;;;;;;4999518;28;20026;-72
2022/12/08 06:28:34;;;;;;;2.75;1.83;;;3.80;99.90;;;;;;4991842;28;20034;-71
2022/12/08 06:30:59;;;;;;;4.20;1.40;;;3.80;99.90;;;;;;4988209;28;20050;-72
2022/12/08 06:33:25;;;;;;;3.33;0.93;;;3.80;99.90;;;;;;4997492;28;20094;-71
2022/12/08 06:35:52;;;;;;;3.67;1.08;;;3.80;99.90;;;;;;4991288;28;20141;-72
2022/12/08 06:38:17;;;;;;;3.38;0.90;;;3.80;99.90;;;;;;4991995;28;20074;-72
2022/12/08 06:40:43;;;;;;;1.83;0.98;;;3.80;99.90;;;;;;4985616;28;20104;-72
2022/12/08 06:43:09;;;;;;;2.78;0.90;;;3.70;99.90;;;;;;4988174;28;20053;-72
2022/12/08 06:45:34;;;;;;;3.75;1.23;;;3.80;99.90;;;;;;4985081;28;20491;-72
2022/12/08 06:48:01;;;;;;;3.05;0.90;;;3.80;99.90;;;;;;4991701;28;20034;-72
2022/12/08 06:50:27;;;;;;;2.45;0.93;;;3.80;99.90;;;;;;4983994;28;20023;-72
2022/12/08 06:52:53;;;;;;;2.70;1.20;;;3.70;99.90;;;;;;4986761;28;20063;-72
2022/12/08 06:55:18;;;;;;;3.83;1.30;;;3.70;99.90;;;;;;4985681;28;20041;-72
2022/12/08 06:57:44;;;;;;;3.67;1.55;;;3.80;99.90;;;;;;4987411;28;20030;-72
2022/12/08 07:00:10;;;;;;;2.88;1.30;;;3.80;99.90;;;;;;4996748;28;20053;-72
2022/12/08 07:02:35;;;;;;;3.95;2.00;;;3.80;99.90;;;;;;4993152;28;20038;-72
2022/12/08 07:05:01;;;;;;;3.83;1.80;;;3.80;99.90;;;;;;4998498;28;20034;-72
2022/12/08 07:07:26;;;;;;;3.92;2.45;;;3.80;99.90;;;;;;4989624;28;20038;-73
2022/12/08 07:09:52;;;;;;;4.28;2.10;;;3.80;99.90;;;;;;4998400;28;20062;-72
2022/12/08 07:12:17;;;;;;;3.38;2.50;;;3.80;99.90;;;;;;4994398;28;20049;-72
2022/12/08 07:14:43;;;;;;;4.78;2.67;;;3.90;99.90;;;;;;4996504;28;20022;-71
2022/12/08 07:17:08;;;;;;;4.40;2.85;;;3.80;99.90;;;;;;4992220;28;20041;-72
2022/12/08 07:19:34;;;;;;;4.35;3.25;;;3.80;99.90;;;;;;4992918;28;20047;-72
2022/12/08 07:21:59;;;;;;;4.25;2.78;;;3.80;99.90;;;;;;5003257;28;20049;-72
2022/12/08 07:24:25;;;;;;;4.45;2.75;;;3.80;99.90;;;;;;4993040;28;20069;-72
2022/12/08 07:26:51;;;;;;;4.07;1.95;;;3.80;99.90;;;;;;4989714;28;20026;-71
2022/12/08 07:29:16;;;;;;;4.30;2.40;;;3.80;99.90;;;;;;4989728;28;20054;-71
2022/12/08 07:31:42;;;;;;;3.35;2.53;;;3.70;99.90;;;;;;4991851;28;20061;-71
2022/12/08 07:34:11;;;;;;;3.97;2.58;;;3.70;99.90;;;;;;4990297;28;20037;-71
2022/12/08 07:36:36;;;;;;;6.38;2.53;;;3.70;99.90;;;;;;4986866;28;20035;-71
2022/12/08 07:39:02;;;;;;;8.80;2.00;;;3.60;99.90;;;;;;4986354;28;20026;-71
2022/12/08 07:41:27;;;;;;;4.00;2.40;;;3.60;99.90;;;;;;4998824;28;20046;-71
2022/12/08 07:43:54;;;;;;;4.18;2.40;;;3.50;99.90;;;;;;5005687;28;20079;-72
2022/12/08 07:46:22;;;;;;;5.40;2.17;;;3.50;99.90;;;;;;4993166;28;20034;-73
2022/12/08 07:48:48;;;;;;;4.13;2.30;;;3.40;99.90;;;;;;5002251;28;20026;-72
2022/12/08 07:51:14;;;;;;;4.60;2.70;;;3.40;99.90;;;;;;4988903;28;20148;-72
2022/12/08 07:53:41;;;;;;;5.32;2.63;;;3.40;99.90;;;;;;4983403;28;20081;-71
2022/12/08 07:56:08;;;;;;;5.63;2.63;;;3.40;99.90;;;;;;5002439;28;20033;-72
2022/12/08 07:58:34;;;;;;;5.22;2.33;;;3.40;99.90;;;;;;4984127;28;20069;-71
2022/12/08 08:00:59;;;;;;;9.45;3.00;;;3.40;99.90;;;;;;4980290;28;20065;-72
2022/12/08 08:03:25;;;;;;;5.03;2.67;;;3.40;99.90;;;;;;4979331;28;20027;-70
2022/12/08 08:05:51;;;;;;;8.35;2.50;;;3.40;99.90;;;;;;4978090;28;20468;-71
2022/12/08 08:08:17;;;;;;;6.68;3.25;;;3.40;99.90;;;;;;4992694;28;20034;-71
2022/12/08 08:10:43;;;;;;;5.40;3.65;;;3.40;99.90;;;;;;4973837;28;20030;-71
2022/12/08 08:13:09;;;;;;;5.65;2.72;;;3.40;99.90;;;;;;4990762;28;20069;-72
2022/12/08 08:15:34;;;;;;;5.65;3.08;;;3.40;99.90;;;;;;4980761;28;20100;-70
2022/12/08 08:18:00;;;;;;;6.32;2.65;;;3.50;99.90;;;;;;4988405;28;20049;-70
2022/12/08 08:20:26;;;;;;;4.28;2.50;;;3.50;99.90;;;;;;4985740;28;20189;-71
2022/12/08 08:22:51;;;;;;;5.53;2.13;;;3.50;99.90;;;;;;4981372;28;20363;-71
2022/12/08 08:25:21;;;;;;;4.15;2.30;;;3.50;99.90;;;;;;4989166;28;20386;-71
2022/12/08 08:27:47;;;;;;;4.90;1.95;;;3.50;99.90;;;;;;4986012;28;20076;-70
2022/12/08 08:30:14;;;;;;;4.05;2.40;;;3.50;99.90;;;;;;4989579;28;20542;-71
2022/12/08 08:32:40;;;;;;;4.28;2.45;;;3.50;99.90;;;;;;4979106;28;20386;-71
2022/12/08 08:35:06;;;;;;;3.20;1.60;;;3.50;99.90;;;;;;4986122;28;20031;-70
2022/12/08 08:37:32;;;;;;;3.60;0.93;;;3.50;99.90;;;;;;4987906;28;20026;-71
2022/12/08 08:39:57;;;;;;;3.15;0.98;;;3.50;99.90;;;;;;4980770;28;20032;-71
2022/12/08 08:42:23;;;;;;;1.95;1.08;;;3.60;99.90;;;;;;4981519;28;20541;-71
2022/12/08 08:44:48;;;;;;;2.38;0.88;;;3.60;99.90;;;;;;4981398;28;20089;-71
2022/12/08 08:47:14;;;;;;;2.20;0.90;;;3.60;99.90;;;;;;4982061;28;20041;-71
2022/12/08 08:49:40;;;;;;;1.77;0.80;;;3.60;99.90;;;;;;4988353;28;20561;-71
2022/12/08 08:52:06;;;;;;;1.95;0.60;;;3.60;99.90;;;;;;4987633;28;20053;-71
2022/12/08 08:54:32;;;;;;;1.90;0.63;;;3.60;99.90;;;;;;4986319;28;20057;-71
2022/12/08 08:56:59;;;;;;;1.40;0.63;;;3.60;99.90;;;;;;4979946;28;20030;-71
2022/12/08 08:59:25;;;;;;;1.45;0.50;;;3.60;99.90;;;;;;4988326;28;20098;-70
2022/12/08 09:01:51;;;;;;;3.47;0.50;;;3.60;99.90;;;;;;4996112;28;20045;-71
2022/12/08 09:04:16;;;;;;;3.63;1.02;;;3.60;99.90;;;;;;4984917;28;20026;-71
2022/12/08 09:06:44;;;;;;;1.55;0.47;;;3.60;99.90;;;;;;4991680;28;20025;-71
2022/12/08 09:09:09;;;;;;;1.77;0.77;;;3.60;99.90;;;;;;4989017;28;20026;-71
2022/12/08 09:11:35;;;;;;;4.43;0.88;;;3.70;99.90;;;;;;4991586;28;20022;-71
2022/12/08 09:14:01;;;;;;;1.67;0.80;;;3.70;99.90;;;;;;4993585;28;20545;-71
2022/12/08 09:16:26;;;;;;;3.85;1.33;;;3.80;99.90;;;;;;4992315;28;20038;-71
2022/12/08 09:18:52;;;;;;;2.15;1.10;;;3.80;99.90;;;;;;4990041;28;20053;-71
2022/12/08 09:21:21;;;;;;;2.97;1.42;;;3.80;99.90;;;;;;4995181;28;20042;-71
2022/12/08 09:23:51;;;;;;;2.65;1.42;;;3.90;99.90;;;;;;4990193;28;20027;-71
2022/12/08 09:26:17;;;;;;;2.22;1.13;;;3.90;99.90;;;;;;4984136;28;20386;-71
2022/12/08 09:28:45;;;;;;;2.85;1.02;;;4.00;99.90;;;;;;4981213;28;20027;-71
2022/12/08 09:31:18;;;;;;;2.72;0.82;;;4.10;99.90;;;;;;4982925;28;20113;-71
2022/12/08 09:33:44;;;;;;;3.05;1.00;;;4.10;99.90;;;;;;4977823;28;20046;-70
2022/12/08 09:36:10;;;;;;;6.70;0.70;;;4.20;99.90;;;;;;4984839;28;20054;-73
2022/12/08 09:38:36;;;;;;;1.30;0.60;;;4.20;99.90;;;;;;4987886;28;20034;-71
2022/12/08 09:41:06;;;;;;;1.38;0.43;;;4.20;99.90;;;;;;4983192;28;20580;-71
2022/12/08 09:43:43;;;;;;;2.33;0.50;;;4.30;99.90;;;;;;4986664;28;20030;-72
2022/12/08 09:46:13;;;;;;;1.00;0.30;;;4.30;99.90;;;;;;4990516;28;20130;-72
2022/12/08 09:48:44;;;;;;;2.05;0.40;;;4.40;99.90;;;;;;4983202;28;20054;-72
2022/12/08 09:51:12;;;;;;;1.15;0.47;;;4.50;99.90;;;;;;4993723;28;20113;-72
2022/12/08 09:53:55;;;;;;;0.82;0.40;;;4.50;99.90;;;;;;4989160;28;20019;-72
2022/12/08 09:56:28;;;;;;;2.40;0.40;;;4.50;99.90;;;;;;4981153;28;20037;-73
2022/12/08 09:59:00;;;;;;;3.95;0.60;;;4.50;99.90;;;;;;4994024;28;20023;-72
2022/12/08 10:01:28;;;;;;;1.23;0.50;;;4.50;99.90;;;;;;4990626;28;20049;-72
2022/12/08 10:03:54;;;;;;;2.13;0.73;;;4.40;99.90;;;;;;5004139;28;20037;-72
2022/12/08 10:06:46;;;;;;;2.20;0.63;;;4.40;99.90;;;;;;4994344;28;20035;-72
2022/12/08 10:09:37;;;;;;;1.60;0.82;;;4.40;99.90;;;;;;4999959;28;20366;-72
2022/12/08 10:12:18;;;;;;;2.35;0.98;;;4.30;99.90;;;;;;4987086;28;20044;-72
2022/12/08 10:15:11;;;;;;;2.60;1.30;;;4.20;99.90;;;;;;4991466;28;20385;-72
2022/12/08 10:17:43;;;;;;;2.92;1.70;;;4.20;99.90;;;;;;4995719;28;20030;-72
2022/12/08 10:20:19;;;;;;;3.03;2.17;;;4.20;99.90;;;;;;4995590;28;20055;-72
2022/12/08 10:22:57;;;;;;;2.97;1.98;;;4.30;99.90;;;;;;4981663;28;20039;-72
2022/12/08 10:25:44;;;;;;;4.13;2.30;;;4.30;99.90;;;;;;4992049;28;20589;-72
2022/12/08 10:28:10;;;;;;;3.60;2.63;;;4.30;99.90;;;;;;4988255;28;20042;-72
2022/12/08 10:30:36;;;;;;;4.93;2.53;;;4.30;99.90;;;;;;4989992;28;20034;-72
2022/12/08 10:33:02;;;;;;;3.50;2.83;;;4.30;99.90;;;;;;4980619;28;20540;-72
2022/12/08 10:35:50;;;;;;;4.03;2.30;;;4.30;99.90;;;;;;4991474;28;20050;-72
2022/12/08 10:38:21;;;;;;;5.43;3.05;;;4.30;99.90;;;;;;4988067;28;20029;-72
2022/12/08 10:40:48;;;;;;;3.78;2.80;;;4.40;99.90;;;;;;4994634;28;20029;-72
2022/12/08 10:43:19;;;;;;;4.18;2.83;;;4.50;99.90;;;;;;4988664;28;20041;-72
2022/12/08 10:45:45;;;;;;;6.65;3.17;;;4.50;99.90;;;;;;4999964;28;20360;-71
2022/12/08 10:48:25;;;;;;;4.53;3.40;;;4.50;99.90;;;;;;4991262;28;20081;-73
2022/12/08 10:50:55;;;;;;;6.97;3.33;;;4.60;99.90;;;;;;4992453;28;20030;-72
2022/12/08 10:53:32;;;;;;;4.63;2.83;;;4.50;99.90;;;;;;4999404;28;20100;-72
2022/12/08 10:56:00;;;;;;;4.57;2.97;;;4.50;99.90;;;;;;4990787;28;20106;-72
2022/12/08 10:58:27;;;;;;;4.55;3.10;;;4.50;99.90;;;;;;4988071;28;20030;-72
2022/12/08 11:01:00;;;;;;;5.50;3.65;;;4.60;99.90;;;;;;4986434;28;20113;-72
2022/12/08 11:03:30;;;;;;;;;;;4.60;99.90;;;;;;4993974;28;20036;-72
2022/12/08 11:05:57;;;;;;;4.53;3.15;;;4.60;99.90;;;;;;5003869;28;19913;-72
2022/12/08 11:08:24;;;;;;;8.00;3.78;;;4.60;99.90;;;;;;4991883;28;20030;-72
2022/12/08 11:10:50;;;;;;;5.90;3.67;;;4.60;99.90;;;;;;4990638;28;20026;-72
2022/12/08 11:13:23;;;;;;;4.95;3.50;;;4.60;99.90;;;;;;4992326;28;20109;-72
2022/12/08 11:15:49;;;;;;;6.30;3.72;;;4.60;99.90;;;;;;4990035;28;20030;-72
2022/12/08 11:18:29;;;;;;;4.93;3.55;;;4.60;99.90;;;;;;4989227;28;20381;-72
2022/12/08 11:21:04;;;;;;;5.90;3.95;;;4.70;99.90;;;;;;4992675;28;20054;-72
2022/12/08 11:23:33;;;;;;;6.80;4.15;;;4.70;99.90;;;;;;4991377;28;20038;-72
2022/12/08 11:26:04;;;;;;;4.88;3.40;;;4.70;99.90;;;;;;4989032;28;20112;-72
2022/12/08 11:28:30;;;;;;;5.65;4.15;;;4.70;99.90;;;;;;4991132;28;20030;-72
2022/12/08 11:31:21;;;;;;;6.53;4.10;;;4.70;99.90;;;;;;4989802;28;20400;-72
2022/12/08 11:33:49;;;;;;;5.63;4.55;;;4.70;99.90;;;;;;4986324;28;20037;-72
2022/12/08 11:36:15;;;;;;;5.78;4.88;;;4.70;99.90;;;;;;4994660;28;20095;-72
2022/12/08 11:38:46;;;;;;;5.20;3.97;;;4.70;99.90;;;;;;4992804;28;20494;-72
2022/12/08 11:41:15;;;;;;;5.15;4.25;;;4.70;99.90;;;;;;4991275;28;20113;-71
2022/12/08 11:43:53;;;;;;;5.05;3.38;;;4.70;99.90;;;;;;4991759;28;20363;-72
2022/12/08 11:46:26;;;;;;;7.03;3.92;;;4.70;99.90;;;;;;4986618;28;20030;-72
2022/12/08 11:48:58;;;;;;;7.25;4.22;;;4.70;99.90;;;;;;4989214;28;20033;-72
2022/12/08 11:51:49;;;;;;;6.13;4.07;;;4.70;99.90;;;;;;4991375;28;20022;-72
2022/12/08 11:54:24;;;;;;;6.78;4.90;;;4.70;99.90;;;;;;4991687;28;20478;-72
2022/12/08 11:56:55;;;;;;;6.20;3.95;;;4.70;99.90;;;;;;4991210;28;20049;-72
2022/12/08 11:59:31;;;;;;;4.87;3.80;;;4.70;99.90;;;;;;4991268;28;20422;-72
2022/12/08 12:01:58;;;;;;;3.70;2.70;;;4.60;99.90;;;;;;4992601;28;20293;-72
2022/12/08 12:04:38;;;;;;;3.83;2.17;;;4.50;99.90;;;;;;4992454;28;20014;-72
2022/12/08 12:07:21;;;;;;;5.65;2.05;;;4.50;99.90;;;;;;4989598;28;20037;-73
2022/12/08 12:10:12;;;;;;;3.53;1.88;;;4.40;99.90;;;;;;5002731;28;20034;-72
2022/12/08 12:13:14;;;;;;;2.80;1.45;;;4.40;99.90;;;;;;4997274;28;20053;-71
2022/12/08 12:16:09;;;;;;;6.15;2.20;;;4.30;99.90;;;;;;4986825;28;20113;-73
2022/12/08 12:18:54;;;;;;;2.53;1.40;;;4.20;99.90;;;;;;4990157;28;20037;-72
2022/12/08 12:21:33;;;;;;;2.60;1.33;;;4.20;99.90;;;;;;4989277;28;20087;-72
2022/12/08 12:24:09;;;;;;;1.95;0.98;;;4.20;99.90;;;;;;4990496;28;20035;-72
2022/12/08 12:26:38;;;;;;;3.75;1.10;;;4.20;99.90;;;;;;4991060;28;20030;-73
2022/12/08 12:29:07;;;;;;;3.15;0.93;;;4.20;99.90;;;;;;4992975;28;20057;-72
2022/12/08 12:31:46;;;;;;;2.90;0.70;;;4.20;99.90;;;;;;4989947;28;20034;-72
2022/12/08 12:34:19;;;;;;;3.15;0.90;;;4.20;99.90;;;;;;4994915;28;20022;-71
2022/12/08 12:36:56;;;;;;;2.50;0.73;;;4.20;99.90;;;;;;4992094;28;20065;-71
2022/12/08 12:39:28;;;;;;;1.80;0.68;;;4.30;99.90;;;;;;5002449;28;20045;-73
2022/12/08 12:41:57;;;;;;;0.93;0.50;;;4.20;99.90;;;;;;4989666;28;20042;-72
2022/12/08 12:44:31;;;;;;;2.40;0.40;;;4.20;99.90;;;;;;4988183;28;20038;-72
2022/12/08 12:47:02;;;;;;;1.45;0.40;;;4.20;99.90;;;;;;4986340;28;20146;-72
2022/12/08 12:49:42;;;;;;;1.67;0.50;;;4.20;99.90;;;;;;4991281;28;20049;-72
2022/12/08 12:52:22;;;;;;;2.20;0.50;;;4.20;99.90;;;;;;4992065;28;20038;-72
2022/12/08 12:54:50;;;;;;;1.77;0.47;;;4.20;99.90;;;;;;4991640;28;20042;-72
2022/12/08 12:57:43;;;;;;;0.90;0.30;;;4.30;99.90;;;;;;4991593;28;20033;-72
2022/12/08 13:00:22;;;;;;;1.40;0.30;;;4.30;99.90;;;;;;4986768;28;20053;-72
2022/12/08 13:02:49;;;;;;;1.60;0.30;;;4.20;99.90;;;;;;4990649;28;20035;-72
2022/12/08 13:05:44;;;;;;;1.00;0.30;;;4.20;99.90;;;;;;4999054;28;20038;-72
2022/12/08 13:08:23;;;;;;;1.27;0.28;;;4.30;99.90;;;;;;4991187;28;20105;-72
2022/12/08 13:11:09;;;;;;;2.35;0.30;;;4.40;99.90;;;;;;4998770;28;20126;-72
2022/12/08 13:14:14;;;;;;;2.25;0.30;;;4.40;99.90;;;;;;4999417;28;20441;-72